Time;durP1;ratioP1;P1;durP2;ratioP2;P2;SDS_P1;SDS_P2;PMS_P1;PMS_P2;Temp;Humidity;BMP_temperature;BMP_pressure;BME280_temperature;BME280_humidity;BME280_pressure;Samples;Min_cycle;Max_cycle;Signal;HPM_P1;HPM_P2
2021/04/06 00:00:05;;;;;;;2.28;0.75;;;0.80;99.90;;;;;;5037215;28;20456;-76
2021/04/06 00:02:32;;;;;;;3.17;0.73;;;0.80;99.90;;;;;;5022067;28;20113;-76
2021/04/06 00:05:01;;;;;;;1.13;0.52;;;0.70;99.90;;;;;;5026517;28;20074;-76
2021/04/06 00:07:27;;;;;;;1.35;0.70;;;0.80;99.90;;;;;;5044871;28;20539;-76
2021/04/06 00:10:01;;;;;;;2.25;0.57;;;0.80;99.90;;;;;;5050101;28;20085;-76
2021/04/06 00:12:27;;;;;;;2.72;0.60;;;0.80;99.90;;;;;;5038316;28;20148;-76
2021/04/06 00:14:55;;;;;;;2.25;0.77;;;0.90;99.90;;;;;;5051520;28;20066;-77
2021/04/06 00:17:23;;;;;;;1.35;0.80;;;0.80;99.90;;;;;;5045732;28;20077;-76
2021/04/06 00:19:50;;;;;;;2.70;0.85;;;0.90;99.90;;;;;;5029213;28;20143;-76
2021/04/06 00:22:18;;;;;;;1.85;0.85;;;0.70;99.90;;;;;;5041059;28;20093;-76
2021/04/06 00:24:48;;;;;;;3.83;1.08;;;0.90;99.90;;;;;;5029806;28;20100;-76
2021/04/06 00:27:18;;;;;;;3.22;1.10;;;0.80;99.90;;;;;;5043232;28;20120;-76
2021/04/06 00:29:48;;;;;;;1.15;0.85;;;0.80;99.90;;;;;;5041138;28;20089;-76
2021/04/06 00:32:16;;;;;;;3.35;0.88;;;0.80;99.90;;;;;;5019090;28;20081;-77
2021/04/06 00:34:42;;;;;;;2.13;0.82;;;0.80;99.90;;;;;;5036262;28;20105;-76
2021/04/06 00:37:13;;;;;;;2.15;1.10;;;0.60;99.90;;;;;;5031993;28;20556;-76
2021/04/06 00:39:40;;;;;;;5.05;1.73;;;0.90;99.90;;;;;;5043219;28;20564;-76
2021/04/06 00:42:20;;;;;;;5.00;1.55;;;0.80;99.90;;;;;;5019285;28;20074;-76
2021/04/06 00:44:52;;;;;;;1.63;1.00;;;0.90;99.90;;;;;;5043877;28;20081;-76
2021/04/06 00:47:26;;;;;;;2.30;1.02;;;0.90;99.90;;;;;;5035798;28;20073;-76
2021/04/06 00:50:04;;;;;;;2.60;1.20;;;0.90;99.90;;;;;;5036434;28;20093;-76
2021/04/06 00:52:32;;;;;;;3.45;1.05;;;1.00;99.90;;;;;;5039333;28;20600;-76
2021/04/06 00:54:58;;;;;;;2.97;1.00;;;0.90;99.90;;;;;;5032356;28;20184;-76
2021/04/06 00:57:32;;;;;;;3.03;1.38;;;0.90;99.90;;;;;;5040268;28;20078;-76
2021/04/06 01:00:21;;;;;;;0.60;0.60;;;0.90;99.90;;;;;;5032813;28;20097;-76
2021/04/06 01:03:06;;;;;;;1.90;1.23;;;0.90;99.90;;;;;;5035120;28;20539;-76
2021/04/06 01:05:52;;;;;;;5.85;1.67;;;0.80;99.90;;;;;;5012652;28;20507;-77
2021/04/06 01:08:17;;;;;;;1.55;1.15;;;1.00;99.90;;;;;;5024415;28;20074;-76
2021/04/06 01:10:46;;;;;;;1.38;1.10;;;0.80;99.90;;;;;;5050880;28;20093;-76
2021/04/06 01:13:12;;;;;;;2.45;1.00;;;0.70;99.90;;;;;;5048097;28;20088;-76
2021/04/06 01:15:39;;;;;;;4.68;1.13;;;0.90;99.90;;;;;;5049582;28;20074;-76
2021/04/06 01:18:05;;;;;;;1.75;1.02;;;0.80;99.90;;;;;;5021356;28;20089;-76
2021/04/06 01:20:31;;;;;;;2.58;1.33;;;0.70;99.90;;;;;;5025324;28;20101;-76
2021/04/06 01:22:58;;;;;;;2.00;1.15;;;0.70;99.90;;;;;;5034083;28;20100;-76
2021/04/06 01:25:29;;;;;;;2.17;1.73;;;0.90;99.90;;;;;;5041666;28;20077;-76
2021/04/06 01:28:09;;;;;;;1.80;1.50;;;0.90;99.90;;;;;;5028996;28;20077;-76
2021/04/06 01:30:49;;;;;;;2.38;1.45;;;0.90;99.90;;;;;;5037323;28;20189;-77
2021/04/06 01:33:17;;;;;;;1.67;1.10;;;1.00;99.90;;;;;;5043951;28;20081;-76
2021/04/06 01:35:57;;;;;;;2.72;1.20;;;0.80;99.90;;;;;;5015269;28;20085;-76
2021/04/06 01:38:25;;;;;;;3.80;1.55;;;0.80;99.90;;;;;;5015400;28;20575;-77
2021/04/06 01:40:55;;;;;;;1.73;1.55;;;1.00;99.90;;;;;;5031501;28;20093;-77
2021/04/06 01:43:25;;;;;;;2.25;1.00;;;0.70;99.90;;;;;;5033623;28;20070;-76
2021/04/06 01:45:56;;;;;;;2.53;1.23;;;0.90;99.90;;;;;;5047084;28;20124;-77
2021/04/06 01:48:22;;;;;;;4.60;1.27;;;0.70;99.90;;;;;;5035269;28;20113;-77
2021/04/06 01:50:53;;;;;;;1.13;0.90;;;0.80;99.90;;;;;;5016183;28;20104;-76
2021/04/06 01:53:20;;;;;;;3.00;0.95;;;0.80;99.90;;;;;;5033257;28;20582;-76
2021/04/06 01:55:53;;;;;;;2.40;1.23;;;0.70;99.90;;;;;;5044173;28;20073;-76
2021/04/06 01:58:21;;;;;;;3.00;1.40;;;0.50;99.90;;;;;;5039664;28;20109;-77
2021/04/06 02:01:06;;;;;;;2.25;1.08;;;0.60;99.90;;;;;;5038587;28;20101;-77
2021/04/06 02:03:36;;;;;;;1.58;1.30;;;0.60;99.90;;;;;;5034782;28;20693;-76
2021/04/06 02:06:02;;;;;;;3.83;1.20;;;0.60;99.90;;;;;;5036658;28;20547;-76
2021/04/06 02:08:30;;;;;;;4.57;1.50;;;0.50;99.90;;;;;;5043175;28;20074;-76
2021/04/06 02:10:56;;;;;;;4.20;1.38;;;0.40;99.90;;;;;;5030522;28;20172;-77
2021/04/06 02:13:22;;;;;;;2.47;1.33;;;0.50;99.90;;;;;;5047196;28;20161;-76
2021/04/06 02:15:58;;;;;;;3.72;1.17;;;0.50;99.90;;;;;;5037988;28;20097;-77
2021/04/06 02:18:28;;;;;;;2.90;1.13;;;0.50;99.90;;;;;;5013993;28;20123;-76
2021/04/06 02:21:05;;;;;;;1.60;1.15;;;0.60;99.90;;;;;;5017550;28;20703;-76
2021/04/06 02:23:38;;;;;;;3.30;1.30;;;0.50;99.90;;;;;;5017839;28;20084;-76
2021/04/06 02:26:05;;;;;;;1.33;1.13;;;0.60;99.90;;;;;;5046829;28;20095;-76
2021/04/06 02:28:30;;;;;;;3.78;1.30;;;0.70;99.90;;;;;;5042254;28;20070;-76
2021/04/06 02:31:04;;;;;;;1.55;1.30;;;0.40;99.90;;;;;;5037328;28;20108;-77
2021/04/06 02:33:35;;;;;;;2.95;1.92;;;0.40;99.90;;;;;;5031823;28;20486;-76
2021/04/06 02:36:08;;;;;;;1.75;1.23;;;0.50;99.90;;;;;;5039154;28;20101;-76
2021/04/06 02:38:38;;;;;;;3.83;1.52;;;0.40;99.90;;;;;;5037870;28;20093;-78
2021/04/06 02:41:15;;;;;;;2.67;1.52;;;0.30;99.90;;;;;;5031426;28;20086;-78
2021/04/06 02:43:42;;;;;;;2.45;1.40;;;0.30;99.90;;;;;;5031885;28;20081;-77
2021/04/06 02:46:08;;;;;;;2.13;1.60;;;0.30;99.90;;;;;;5045388;28;20648;-78
2021/04/06 02:48:35;;;;;;;5.25;1.85;;;0.00;99.90;;;;;;5041246;28;20069;-78
2021/04/06 02:51:01;;;;;;;1.83;1.15;;;0.00;99.90;;;;;;5030629;28;20096;-77
2021/04/06 02:53:27;;;;;;;1.90;1.55;;;-0.30;99.90;;;;;;5032001;28;20066;-77
2021/04/06 02:55:53;;;;;;;2.00;1.45;;;0.00;99.90;;;;;;5027392;28;20135;-77
2021/04/06 02:58:19;;;;;;;2.60;1.35;;;0.00;99.90;;;;;;5033056;28;20074;-78
2021/04/06 03:00:45;;;;;;;2.40;1.00;;;0.20;99.90;;;;;;5022084;28;20187;-78
2021/04/06 03:03:25;;;;;;;4.78;1.65;;;-0.10;99.90;;;;;;5031183;28;20077;-77
2021/04/06 03:06:02;;;;;;;2.35;1.48;;;-0.10;99.90;;;;;;5037419;28;20062;-78
2021/04/06 03:08:29;;;;;;;3.35;1.35;;;-0.20;99.90;;;;;;5028924;28;20547;-77
2021/04/06 03:10:56;;;;;;;3.80;1.52;;;-0.10;99.90;;;;;;5042041;28;20081;-78
2021/04/06 03:13:24;;;;;;;2.78;1.73;;;-0.20;99.90;;;;;;5038036;28;20599;-77
2021/04/06 03:15:52;;;;;;;5.35;1.38;;;-0.40;99.90;;;;;;5048950;28;20070;-78
2021/04/06 03:18:18;;;;;;;3.55;1.60;;;-0.20;99.90;;;;;;5048104;28;20116;-78
2021/04/06 03:20:44;;;;;;;2.03;1.60;;;-0.20;99.90;;;;;;5043230;28;20474;-78
2021/04/06 03:23:10;;;;;;;3.33;1.77;;;-0.20;99.90;;;;;;5031027;28;20081;-78
2021/04/06 03:25:37;;;;;;;3.58;1.40;;;0.10;99.90;;;;;;5036663;28;20085;-77
2021/04/06 03:28:08;;;;;;;2.33;1.50;;;0.10;99.90;;;;;;5047404;28;20099;-77
2021/04/06 03:30:35;;;;;;;5.38;1.58;;;0.00;99.90;;;;;;5048629;28;20111;-77
2021/04/06 03:33:03;;;;;;;1.77;1.23;;;0.00;99.90;;;;;;5034662;28;20074;-78
2021/04/06 03:35:29;;;;;;;1.80;1.15;;;0.00;99.90;;;;;;5042904;28;20184;-78
2021/04/06 03:37:56;;;;;;;2.20;1.80;;;-0.30;99.90;;;;;;5033536;28;20093;-78
2021/04/06 03:40:22;;;;;;;3.22;1.77;;;-0.40;99.90;;;;;;5029138;28;20506;-78
2021/04/06 03:42:47;;;;;;;1.98;1.35;;;-0.50;99.90;;;;;;5036929;28;20070;-77
2021/04/06 03:45:13;;;;;;;4.25;1.65;;;-0.50;99.90;;;;;;5026735;28;20200;-78
2021/04/06 03:47:52;;;;;;;2.58;1.40;;;-0.60;99.90;;;;;;5031985;28;20070;-78
2021/04/06 03:50:40;;;;;;;3.92;1.88;;;-0.50;99.90;;;;;;5033845;28;20101;-77
2021/04/06 03:53:09;;;;;;;3.83;1.55;;;-0.30;99.90;;;;;;5041749;28;20104;-77
2021/04/06 03:55:37;;;;;;;3.33;2.10;;;-0.40;99.90;;;;;;5029978;28;20081;-78
2021/04/06 03:58:17;;;;;;;3.08;2.17;;;-0.50;99.90;;;;;;5045530;28;20078;-77
2021/04/06 04:00:43;;;;;;;4.32;1.95;;;-0.60;99.90;;;;;;5044335;28;20101;-78
2021/04/06 04:03:09;;;;;;;3.97;1.60;;;-0.40;99.90;;;;;;5052537;28;20069;-76
2021/04/06 04:05:34;;;;;;;3.55;1.52;;;-0.50;99.90;;;;;;5034531;28;20599;-76
2021/04/06 04:08:01;;;;;;;3.33;1.85;;;-0.80;99.90;;;;;;5049856;28;20138;-76
2021/04/06 04:10:27;;;;;;;3.25;1.80;;;-0.90;99.90;;;;;;5030583;28;20097;-76
2021/04/06 04:12:53;;;;;;;1.92;1.67;;;-0.70;99.90;;;;;;5036547;28;20070;-77
2021/04/06 04:15:19;;;;;;;5.18;1.65;;;-0.60;99.90;;;;;;5033725;28;20157;-78
2021/04/06 04:17:49;;;;;;;2.42;1.45;;;-0.60;99.90;;;;;;5049678;28;20161;-77
2021/04/06 04:20:15;;;;;;;3.47;1.92;;;-0.70;99.90;;;;;;5037853;28;20097;-77
2021/04/06 04:22:41;;;;;;;3.05;2.13;;;-0.80;99.90;;;;;;5036172;28;20077;-77
2021/04/06 04:25:12;;;;;;;4.47;1.42;;;-0.90;99.90;;;;;;5029197;28;20435;-77
2021/04/06 04:27:39;;;;;;;4.10;1.70;;;-0.90;99.90;;;;;;5028808;28;20133;-77
2021/04/06 04:30:06;;;;;;;2.42;1.48;;;-0.70;99.90;;;;;;5032901;28;20090;-77
2021/04/06 04:32:31;;;;;;;1.70;1.58;;;-0.70;99.90;;;;;;5014387;28;20074;-77
2021/04/06 04:34:57;;;;;;;3.40;1.58;;;-0.80;99.90;;;;;;5032326;28;20504;-76
2021/04/06 04:37:22;;;;;;;7.25;3.08;;;-0.90;99.90;;;;;;5042988;28;20070;-78
2021/04/06 04:39:48;;;;;;;6.10;1.70;;;-0.80;99.90;;;;;;5049155;28;20112;-77
2021/04/06 04:42:14;;;;;;;5.82;2.63;;;-0.60;99.90;;;;;;5047402;28;20152;-77
2021/04/06 04:44:39;;;;;;;3.53;1.88;;;-0.50;99.90;;;;;;5043419;28;20077;-77
2021/04/06 04:47:05;;;;;;;3.42;1.70;;;-0.40;99.90;;;;;;5042089;28;20212;-76
2021/04/06 04:49:30;;;;;;;3.80;2.25;;;-0.30;99.90;;;;;;5031566;28;20447;-77
2021/04/06 04:51:56;;;;;;;5.30;3.03;;;-0.50;99.90;;;;;;5027776;28;20074;-77
2021/04/06 04:54:22;;;;;;;5.43;2.80;;;-0.60;99.90;;;;;;5015733;28;20128;-77
2021/04/06 04:56:47;;;;;;;6.03;3.65;;;-0.40;99.90;;;;;;5029786;28;20120;-77
2021/04/06 04:59:13;;;;;;;4.45;2.55;;;-0.40;99.90;;;;;;5032362;28;20121;-76
2021/04/06 05:01:38;;;;;;;4.75;3.45;;;-0.30;99.90;;;;;;5045709;28;20085;-76
2021/04/06 05:04:04;;;;;;;2.83;2.00;;;-0.30;99.90;;;;;;5054102;28;20105;-76
2021/04/06 05:06:30;;;;;;;3.03;2.13;;;-0.10;99.90;;;;;;5029141;28;20093;-77
2021/04/06 05:08:55;;;;;;;3.85;2.20;;;-0.20;99.90;;;;;;5031961;28;20077;-77
2021/04/06 05:11:21;;;;;;;2.70;2.15;;;-0.10;99.90;;;;;;5037905;28;20098;-77
2021/04/06 05:13:47;;;;;;;4.63;2.42;;;-0.10;99.90;;;;;;5046033;28;20089;-76
2021/04/06 05:16:13;;;;;;;5.05;2.10;;;-0.30;99.90;;;;;;5044603;28;20119;-76
2021/04/06 05:18:39;;;;;;;4.60;1.83;;;-0.20;99.90;;;;;;5020090;28;20845;-76
2021/04/06 05:21:05;;;;;;;2.53;1.65;;;0.00;99.90;;;;;;5031886;28;20105;-76
2021/04/06 05:23:31;;;;;;;3.97;1.60;;;-0.10;99.90;;;;;;5017767;28;20127;-76
2021/04/06 05:25:56;;;;;;;3.08;1.50;;;-0.20;99.90;;;;;;5032128;28;20167;-76
2021/04/06 05:28:22;;;;;;;4.07;1.77;;;-0.20;99.90;;;;;;5047432;28;20074;-76
2021/04/06 05:30:48;;;;;;;2.65;1.60;;;-0.20;99.90;;;;;;5055851;28;20097;-76
2021/04/06 05:33:13;;;;;;;2.50;1.77;;;-0.10;99.90;;;;;;5040143;28;20212;-76
2021/04/06 05:35:39;;;;;;;3.78;1.70;;;-0.30;99.90;;;;;;5029960;28;20582;-76
2021/04/06 05:38:04;;;;;;;3.90;1.95;;;-0.40;99.90;;;;;;5046296;28;20086;-76
2021/04/06 05:40:30;;;;;;;2.22;1.90;;;-0.30;99.90;;;;;;5044363;28;20181;-77
2021/04/06 05:42:58;;;;;;;4.63;1.90;;;-0.20;99.90;;;;;;5031029;28;20074;-76
2021/04/06 05:45:24;;;;;;;5.00;1.73;;;-0.10;99.90;;;;;;5030759;28;20533;-76
2021/04/06 05:47:55;;;;;;;3.20;1.85;;;0.00;99.90;;;;;;5034791;28;20081;-76
2021/04/06 05:50:21;;;;;;;3.67;2.10;;;0.00;99.90;;;;;;5039384;28;20098;-76
2021/04/06 05:52:47;;;;;;;2.50;1.88;;;-0.20;99.90;;;;;;5030722;28;20510;-76
2021/04/06 05:55:13;;;;;;;5.05;2.28;;;0.00;99.90;;;;;;5047279;28;20089;-77
2021/04/06 05:57:39;;;;;;;4.60;2.33;;;-0.30;99.90;;;;;;5020434;28;20088;-76
2021/04/06 06:00:06;;;;;;;2.50;1.67;;;0.10;99.90;;;;;;5044265;28;20159;-77
2021/04/06 06:02:32;;;;;;;6.65;3.28;;;0.00;99.90;;;;;;5045342;28;20493;-77
2021/04/06 06:04:58;;;;;;;4.28;2.35;;;-0.10;99.90;;;;;;5042336;28;20077;-77
2021/04/06 06:07:24;;;;;;;2.03;1.40;;;-0.30;99.90;;;;;;5036438;28;20077;-77
2021/04/06 06:09:50;;;;;;;2.90;1.60;;;-0.20;99.90;;;;;;5050258;28;20581;-77
2021/04/06 06:12:19;;;;;;;4.47;2.17;;;-0.10;99.90;;;;;;5047166;28;20081;-77
2021/04/06 06:14:48;;;;;;;2.80;1.98;;;-0.10;99.90;;;;;;5041759;28;20082;-76
2021/04/06 06:17:25;;;;;;;5.00;2.78;;;0.20;99.90;;;;;;5047185;28;20554;-76
2021/04/06 06:19:52;;;;;;;4.90;2.25;;;0.00;99.90;;;;;;5028294;28;20467;-76
2021/04/06 06:22:31;;;;;;;7.72;2.65;;;0.20;99.90;;;;;;5039267;28;20081;-77
2021/04/06 06:25:07;;;;;;;6.93;2.25;;;0.20;99.90;;;;;;5039222;28;20123;-76
2021/04/06 06:27:46;;;;;;;3.42;1.70;;;0.40;99.90;;;;;;5046632;28;20168;-77
2021/04/06 06:30:31;;;;;;;4.47;1.85;;;0.50;99.90;;;;;;5018581;28;20089;-77
2021/04/06 06:33:15;;;;;;;2.85;2.20;;;0.60;99.90;;;;;;5053301;28;20139;-76
2021/04/06 06:35:42;;;;;;;4.85;2.03;;;0.20;99.90;;;;;;5050061;28;20831;-76
2021/04/06 06:38:20;;;;;;;3.47;1.67;;;0.50;99.90;;;;;;5046079;28;20077;-76
2021/04/06 06:40:48;;;;;;;3.60;1.45;;;0.50;99.90;;;;;;5037005;28;20104;-76
2021/04/06 06:43:16;;;;;;;3.80;1.50;;;0.50;99.90;;;;;;5037102;28;20743;-77
2021/04/06 06:45:42;;;;;;;4.90;1.42;;;0.50;99.90;;;;;;5039791;28;20086;-76
2021/04/06 06:48:09;;;;;;;1.98;1.45;;;0.30;99.90;;;;;;5016316;28;20073;-76
2021/04/06 06:50:48;;;;;;;3.58;2.03;;;0.50;99.90;;;;;;5042152;28;20121;-76
2021/04/06 06:53:13;;;;;;;3.20;1.55;;;0.50;99.90;;;;;;5020989;28;20116;-76
2021/04/06 06:55:40;;;;;;;3.10;2.03;;;0.60;99.90;;;;;;5021816;28;20109;-77
2021/04/06 06:58:06;;;;;;;3.60;1.88;;;0.50;99.90;;;;;;5036514;28;20555;-77
2021/04/06 07:00:33;;;;;;;3.42;1.60;;;0.60;99.90;;;;;;5036198;28;20120;-76
2021/04/06 07:02:58;;;;;;;4.70;3.13;;;0.90;99.90;;;;;;5050060;28;20074;-76
2021/04/06 07:05:29;;;;;;;3.55;2.15;;;0.70;99.90;;;;;;5043107;28;20154;-76
2021/04/06 07:08:05;;;;;;;5.25;1.83;;;0.90;99.90;;;;;;5042954;28;20562;-76
2021/04/06 07:10:35;;;;;;;4.50;2.38;;;0.80;99.90;;;;;;5053211;28;20096;-76
2021/04/06 07:13:17;;;;;;;4.78;2.13;;;0.70;99.90;;;;;;5029197;28;20181;-76
2021/04/06 07:15:44;;;;;;;4.45;2.13;;;0.90;99.90;;;;;;5038593;28;20091;-76
2021/04/06 07:18:17;;;;;;;3.70;2.30;;;0.90;99.90;;;;;;5044831;28;20070;-76
2021/04/06 07:21:05;;;;;;;7.30;2.65;;;1.00;99.90;;;;;;5020320;28;20093;-76
2021/04/06 07:23:35;;;;;;;3.45;1.88;;;1.00;99.90;;;;;;5030892;28;20451;-76
2021/04/06 07:26:07;;;;;;;4.68;1.70;;;1.20;99.90;;;;;;5033026;28;20070;-76
2021/04/06 07:28:32;;;;;;;5.55;2.40;;;1.30;99.90;;;;;;5014956;28;20078;-76
2021/04/06 07:30:58;;;;;;;4.93;2.53;;;1.20;99.90;;;;;;5020312;28;20144;-76
2021/04/06 07:33:24;;;;;;;7.75;2.40;;;1.30;99.90;;;;;;5037615;28;20073;-76
2021/04/06 07:35:52;;;;;;;3.20;2.05;;;1.30;99.90;;;;;;5048505;28;20579;-76
2021/04/06 07:38:18;;;;;;;5.00;1.67;;;1.40;99.90;;;;;;5029023;28;20085;-76
2021/04/06 07:40:44;;;;;;;8.50;2.08;;;1.40;99.90;;;;;;5036273;28;20137;-76
2021/04/06 07:43:10;;;;;;;4.55;1.50;;;1.40;99.90;;;;;;5033553;28;20132;-76
2021/04/06 07:45:38;;;;;;;3.85;1.88;;;1.40;99.90;;;;;;5028817;28;20105;-76
2021/04/06 07:48:04;;;;;;;8.02;2.08;;;1.50;99.90;;;;;;5048858;28;20066;-76
2021/04/06 07:50:34;;;;;;;3.80;1.70;;;1.40;99.90;;;;;;5042630;28;20105;-76
2021/04/06 07:53:25;;;;;;;3.72;1.85;;;1.50;99.90;;;;;;5037940;28;20629;-76
2021/04/06 07:55:55;;;;;;;2.85;2.00;;;1.50;99.90;;;;;;5047906;28;20084;-75
2021/04/06 07:58:59;;;;;;;6.07;1.67;;;1.50;99.90;;;;;;5045336;28;20561;-76
2021/04/06 08:01:26;;;;;;;2.17;1.60;;;1.50;99.90;;;;;;4997696;28;20173;-77
2021/04/06 08:03:54;;;;;;;4.22;1.40;;;1.30;99.90;;;;;;4995976;28;20170;-76
2021/04/06 08:06:25;;;;;;;2.53;2.22;;;1.20;99.90;;;;;;5018544;28;20117;-76
2021/04/06 08:08:51;;;;;;;2.80;1.25;;;1.30;99.90;;;;;;5049912;28;20077;-76
2021/04/06 08:11:17;;;;;;;6.85;2.10;;;1.40;99.90;;;;;;5025337;28;20105;-76
2021/04/06 08:13:44;;;;;;;4.65;2.70;;;1.20;99.90;;;;;;5035755;28;20078;-80
2021/04/06 08:16:15;;;;;;;10.52;2.90;;;1.10;99.90;;;;;;5046026;28;20089;-77
2021/04/06 08:18:54;;;;;;;5.20;1.98;;;1.10;99.90;;;;;;5036591;28;20078;-77
2021/04/06 08:21:24;;;;;;;5.95;1.58;;;1.10;99.90;;;;;;5041688;28;20124;-75
2021/04/06 08:23:51;;;;;;;4.22;1.52;;;1.10;99.90;;;;;;5033010;28;20495;-76
2021/04/06 08:26:35;;;;;;;3.42;1.90;;;1.10;99.90;;;;;;5042797;28;20085;-77
2021/04/06 08:29:22;;;;;;;5.03;1.83;;;1.10;99.90;;;;;;5054701;28;20077;-78
2021/04/06 08:32:14;;;;;;;3.53;1.50;;;1.10;99.90;;;;;;5034024;28;20094;-77
2021/04/06 08:34:53;;;;;;;4.65;2.42;;;1.10;99.90;;;;;;5034271;28;20077;-75
2021/04/06 08:37:32;;;;;;;3.65;1.90;;;1.10;99.90;;;;;;5038144;28;20081;-77
2021/04/06 08:39:57;;;;;;;3.88;1.48;;;1.10;99.90;;;;;;5037521;28;20502;-77
2021/04/06 08:42:23;;;;;;;3.67;2.13;;;1.20;99.90;;;;;;5032655;28;20077;-78
2021/04/06 08:44:56;;;;;;;7.03;2.83;;;1.20;99.90;;;;;;5035610;28;20161;-78
2021/04/06 08:47:46;;;;;;;7.53;1.85;;;1.30;99.90;;;;;;5033683;28;20069;-78
2021/04/06 08:50:31;;;;;;;4.78;2.05;;;1.50;99.90;;;;;;5037425;28;20073;-78
2021/04/06 08:52:57;;;;;;;3.30;1.40;;;1.60;99.90;;;;;;5052149;28;20354;-77
2021/04/06 08:55:25;;;;;;;3.60;1.63;;;1.70;99.90;;;;;;5047680;28;20082;-77
2021/04/06 08:57:58;;;;;;;3.33;1.98;;;1.70;99.90;;;;;;5045521;28;20093;-75
2021/04/06 09:00:25;;;;;;;4.85;1.90;;;1.80;99.90;;;;;;5024469;28;20132;-78
2021/04/06 09:03:02;;;;;;;4.63;2.13;;;1.60;99.90;;;;;;5041379;28;20088;-78
2021/04/06 09:05:28;;;;;;;7.22;2.53;;;1.60;99.90;;;;;;5045839;28;20511;-77
2021/04/06 09:07:53;;;;;;;3.90;2.00;;;1.60;99.90;;;;;;5046395;28;20117;-80
2021/04/06 09:10:19;;;;;;;3.55;1.83;;;1.50;99.90;;;;;;5025802;28;20785;-76
2021/04/06 09:12:45;;;;;;;6.88;1.90;;;1.60;99.90;;;;;;5017627;28;20082;-76
2021/04/06 09:15:13;;;;;;;4.15;1.77;;;1.60;99.90;;;;;;5042075;28;20093;-76
2021/04/06 09:17:39;;;;;;;3.45;1.52;;;1.60;99.90;;;;;;5024925;28;20069;-76
2021/04/06 09:20:16;;;;;;;3.58;1.88;;;1.70;99.90;;;;;;5026606;28;20120;-76
2021/04/06 09:22:48;;;;;;;4.72;1.95;;;1.90;99.90;;;;;;5033873;28;20081;-76
2021/04/06 09:25:20;;;;;;;3.00;1.80;;;1.90;99.90;;;;;;5041281;28;20080;-76
2021/04/06 09:27:51;;;;;;;3.55;2.60;;;2.10;99.90;;;;;;5037306;28;20109;-79
2021/04/06 09:30:17;;;;;;;7.32;2.53;;;1.90;99.90;;;;;;5054799;28;20115;-79
2021/04/06 09:32:43;;;;;;;4.53;2.17;;;2.00;99.90;;;;;;5034095;28;20091;-77
2021/04/06 09:35:14;;;;;;;9.73;2.45;;;1.90;99.90;;;;;;5028929;28;20089;-75
2021/04/06 09:37:41;;;;;;;2.92;1.70;;;2.00;99.90;;;;;;5030722;28;20124;-76
2021/04/06 09:40:07;;;;;;;3.67;2.17;;;2.10;99.90;;;;;;5048969;28;20104;-75
2021/04/06 09:42:35;;;;;;;6.38;1.90;;;2.10;99.90;;;;;;5045861;28;20787;-76
2021/04/06 09:45:03;;;;;;;4.07;1.70;;;2.00;99.90;;;;;;5050674;28;20074;-76
2021/04/06 09:47:29;;;;;;;3.85;2.00;;;2.10;99.90;;;;;;5026287;28;20070;-75
2021/04/06 09:49:55;;;;;;;4.90;2.10;;;2.00;99.90;;;;;;5019348;28;20105;-76
2021/04/06 09:52:27;;;;;;;4.97;2.17;;;2.10;99.90;;;;;;5037864;28;20147;-76
2021/04/06 09:54:53;;;;;;;5.40;1.67;;;2.10;99.90;;;;;;5038160;28;20085;-76
2021/04/06 09:57:22;;;;;;;6.47;2.70;;;2.00;99.90;;;;;;5035346;28;20153;-75
2021/04/06 09:59:56;;;;;;;7.18;1.83;;;2.20;99.90;;;;;;5039566;28;20101;-75
2021/04/06 10:02:24;;;;;;;2.50;1.80;;;2.40;99.90;;;;;;5020778;28;20554;-76
2021/04/06 10:04:51;;;;;;;6.90;2.13;;;2.50;99.90;;;;;;5041469;28;20078;-76
2021/04/06 10:07:24;;;;;;;3.03;1.38;;;2.60;99.90;;;;;;5020718;28;20085;-76
2021/04/06 10:10:01;;;;;;;3.90;2.05;;;2.60;99.90;;;;;;5041433;28;20098;-76
2021/04/06 10:12:29;;;;;;;8.00;2.50;;;2.60;99.90;;;;;;5038251;28;20168;-76
2021/04/06 10:14:55;;;;;;;3.50;1.70;;;2.70;99.90;;;;;;5018142;28;20077;-79
2021/04/06 10:17:23;;;;;;;3.95;1.70;;;2.80;99.90;;;;;;5045840;28;20074;-79
2021/04/06 10:20:08;;;;;;;5.38;1.85;;;2.90;99.90;;;;;;5014419;28;20102;-76
2021/04/06 10:22:42;;;;;;;4.63;2.15;;;3.00;99.90;;;;;;5044083;28;20085;-77
2021/04/06 10:25:09;;;;;;;6.82;1.92;;;3.00;99.90;;;;;;5026909;28;20074;-78
2021/04/06 10:27:51;;;;;;;4.80;1.80;;;3.00;99.90;;;;;;5034081;28;20720;-75
2021/04/06 10:30:31;;;;;;;3.65;1.48;;;3.10;99.90;;;;;;5031929;28;20128;-77
2021/04/06 10:33:10;;;;;;;7.07;1.80;;;3.00;99.90;;;;;;5032011;28;20077;-78
2021/04/06 10:35:58;;;;;;;2.75;1.90;;;3.20;99.90;;;;;;5024826;28;20077;-76
2021/04/06 10:38:27;;;;;;;5.50;1.55;;;3.20;99.90;;;;;;5034509;28;20081;-78
2021/04/06 10:41:07;;;;;;;5.30;1.92;;;3.20;99.90;;;;;;5047767;28;20105;-77
2021/04/06 10:43:34;;;;;;;2.50;1.70;;;3.10;99.90;;;;;;5045779;28;20076;-76
2021/04/06 10:46:22;;;;;;;3.22;1.85;;;3.20;99.90;;;;;;5045949;28;20066;-78
2021/04/06 10:49:00;;;;;;;3.70;2.03;;;3.40;99.90;;;;;;5046371;28;20078;-78
2021/04/06 10:51:27;;;;;;;2.08;1.27;;;3.50;99.90;;;;;;5045928;28;20109;-76
2021/04/06 10:54:14;;;;;;;3.95;1.48;;;3.30;99.90;;;;;;5048410;28;20532;-76
2021/04/06 10:56:45;;;;;;;4.18;1.67;;;3.30;99.90;;;;;;5032783;28;20656;-78
2021/04/06 10:59:13;;;;;;;2.75;1.25;;;3.20;99.90;;;;;;5038793;28;20093;-76
2021/04/06 11:01:40;;;;;;;3.92;1.50;;;3.00;99.90;;;;;;5031275;28;20109;-76
2021/04/06 11:04:17;;;;;;;7.20;1.67;;;2.90;99.90;;;;;;5018613;28;20105;-76
2021/04/06 11:06:58;;;;;;;7.30;1.80;;;2.80;99.90;;;;;;5040413;28;20081;-76
2021/04/06 11:09:49;;;;;;;6.35;1.83;;;2.90;99.90;;;;;;5043528;28;20109;-77
2021/04/06 11:12:16;;;;;;;4.13;1.42;;;2.80;99.90;;;;;;5028776;28;20078;-78
2021/04/06 11:14:43;;;;;;;2.13;1.65;;;2.90;99.90;;;;;;5028594;28;20204;-76
2021/04/06 11:17:11;;;;;;;5.88;1.33;;;2.70;99.90;;;;;;5041225;28;20085;-79
2021/04/06 11:19:39;;;;;;;5.68;1.77;;;2.60;99.90;;;;;;5033046;28;20510;-80
2021/04/06 11:22:11;;;;;;;2.70;1.58;;;2.60;99.90;;;;;;5031615;28;20123;-78
2021/04/06 11:24:38;;;;;;;2.92;1.38;;;2.60;99.90;;;;;;5044722;28;20096;-78
2021/04/06 11:27:05;;;;;;;2.95;1.20;;;2.70;99.90;;;;;;5015692;28;20080;-75
2021/04/06 11:29:33;;;;;;;5.72;1.58;;;2.70;99.90;;;;;;5041900;28;20192;-76
2021/04/06 11:32:06;;;;;;;2.67;1.67;;;2.70;99.90;;;;;;5042335;28;20567;-75
2021/04/06 11:34:32;;;;;;;3.72;1.30;;;2.70;99.90;;;;;;5045595;28;20099;-76
2021/04/06 11:36:58;;;;;;;3.78;1.33;;;2.90;99.90;;;;;;5045436;28;20078;-77
2021/04/06 11:39:29;;;;;;;3.63;1.77;;;3.10;99.90;;;;;;5036194;28;20078;-76
2021/04/06 11:41:56;;;;;;;2.13;1.23;;;3.20;99.90;;;;;;5035583;28;20649;-75
2021/04/06 11:44:22;;;;;;;3.00;1.77;;;3.20;99.90;;;;;;5038625;28;20146;-75
2021/04/06 11:46:48;;;;;;;3.25;1.63;;;3.10;99.90;;;;;;5038337;28;20109;-78
2021/04/06 11:49:16;;;;;;;2.83;1.10;;;3.00;99.90;;;;;;5038804;28;20777;-77
2021/04/06 11:51:42;;;;;;;3.70;1.38;;;3.10;99.90;;;;;;5036597;28;20093;-77
2021/04/06 11:54:11;;;;;;;4.32;1.58;;;3.20;99.90;;;;;;5043358;28;20078;-77
2021/04/06 11:56:36;;;;;;;2.28;1.10;;;3.20;99.90;;;;;;5037692;28;20444;-77
2021/04/06 11:59:03;;;;;;;5.03;1.40;;;3.30;99.90;;;;;;5044121;28;20093;-77
2021/04/06 12:01:29;;;;;;;2.55;1.05;;;3.10;99.90;;;;;;5039330;28;20558;-76
2021/04/06 12:03:55;;;;;;;3.78;1.98;;;3.10;99.90;;;;;;5044073;28;20093;-76
2021/04/06 12:06:21;;;;;;;4.82;1.55;;;2.70;99.90;;;;;;5040397;28;20066;-77
2021/04/06 12:08:47;;;;;;;7.82;2.28;;;2.50;99.90;;;;;;5046777;28;20539;-76
2021/04/06 12:11:13;;;;;;;5.85;2.00;;;2.60;99.90;;;;;;5044607;28;20609;-76
2021/04/06 12:13:38;;;;;;;4.97;1.98;;;2.70;99.90;;;;;;5035524;28;20078;-78
2021/04/06 12:16:05;;;;;;;4.95;1.65;;;2.70;99.90;;;;;;5035686;28;20119;-75
2021/04/06 12:18:31;;;;;;;3.53;1.50;;;2.80;99.90;;;;;;5042069;28;20536;-75
2021/04/06 12:20:56;;;;;;;3.75;1.88;;;2.90;99.90;;;;;;5030980;28;20097;-76
2021/04/06 12:23:22;;;;;;;4.25;1.80;;;2.70;99.90;;;;;;5042537;28;20089;-75
2021/04/06 12:25:47;;;;;;;6.20;1.90;;;2.70;99.90;;;;;;5045753;28;20085;-76
2021/04/06 12:28:13;;;;;;;2.72;1.48;;;2.60;99.90;;;;;;5040069;28;20646;-76
2021/04/06 12:30:38;;;;;;;6.72;1.83;;;2.50;99.90;;;;;;5053414;28;20127;-77
2021/04/06 12:33:04;;;;;;;3.67;2.10;;;2.70;99.90;;;;;;5044221;28;20128;-77
2021/04/06 12:35:30;;;;;;;9.18;1.80;;;3.00;99.90;;;;;;5030052;28;20093;-79
2021/04/06 12:37:57;;;;;;;4.90;1.92;;;3.10;99.90;;;;;;5044610;28;20081;-79
2021/04/06 12:40:23;;;;;;;2.55;1.77;;;3.20;99.90;;;;;;5042944;28;20100;-79
2021/04/06 12:42:48;;;;;;;4.75;1.90;;;3.40;99.90;;;;;;5048028;28;20066;-80
2021/04/06 12:45:16;;;;;;;5.38;2.30;;;3.30;99.90;;;;;;5020439;28;20073;-79
2021/04/06 12:47:42;;;;;;;2.60;1.42;;;3.30;99.90;;;;;;5023239;28;20078;-79
2021/04/06 12:50:08;;;;;;;2.75;1.55;;;3.20;99.90;;;;;;5019427;28;20196;-79
2021/04/06 12:52:34;;;;;;;3.50;1.55;;;3.30;99.90;;;;;;5049561;28;20100;-80
2021/04/06 12:54:59;;;;;;;2.55;1.63;;;3.40;99.90;;;;;;5043614;28;20548;-80
2021/04/06 12:57:25;;;;;;;2.50;1.77;;;3.60;99.90;;;;;;5021666;28;20070;-80
2021/04/06 12:59:55;;;;;;;2.25;1.45;;;3.60;99.90;;;;;;5021522;28;20100;-80
2021/04/06 13:02:22;;;;;;;3.65;1.63;;;3.70;99.90;;;;;;5034369;28;20751;-79
2021/04/06 13:04:48;;;;;;;4.28;1.48;;;3.90;99.90;;;;;;5035050;28;20081;-79
2021/04/06 13:07:14;;;;;;;4.20;1.63;;;4.00;99.90;;;;;;5030833;28;20074;-79